createdAt,value
2023-03-23T00:02:19.829Z,24.33
2023-03-23T00:06:19.813Z,24.35
2023-03-23T00:10:19.749Z,24.35
2023-03-23T00:14:19.719Z,24.31
2023-03-23T00:18:19.712Z,24.38
2023-03-23T00:22:19.673Z,24.37
2023-03-23T00:26:19.604Z,24.35
2023-03-23T00:30:19.598Z,24.37
2023-03-23T00:34:19.557Z,24.42
2023-03-23T00:38:19.543Z,24.33
2023-03-23T00:42:19.670Z,24.39
2023-03-23T00:46:19.630Z,24.35
2023-03-23T00:50:22.257Z,24.34
2023-03-23T00:54:20.591Z,24.39
2023-03-23T00:58:19.580Z,24.40
2023-03-23T01:02:19.735Z,24.38
2023-03-23T01:06:19.747Z,24.42
2023-03-23T01:10:19.685Z,24.38
2023-03-23T01:14:19.691Z,24.43
2023-03-23T01:18:19.610Z,24.43
2023-03-23T01:22:20.565Z,24.40
2023-03-23T01:26:20.015Z,24.42
2023-03-23T01:30:19.734Z,24.37
2023-03-23T01:34:19.937Z,24.40
2023-03-23T01:38:20.114Z,24.39
2023-03-23T01:42:20.321Z,24.41
2023-03-23T01:46:20.430Z,24.41
2023-03-23T01:50:20.637Z,24.41
2023-03-23T01:54:20.778Z,24.34
2023-03-23T01:58:20.920Z,24.43
2023-03-23T02:02:21.085Z,24.44
2023-03-23T02:06:21.002Z,24.40
2023-03-23T02:10:21.000Z,24.48
2023-03-23T02:14:20.916Z,24.42
2023-03-23T02:18:20.887Z,24.44
2023-03-23T02:22:20.958Z,24.41
2023-03-23T02:26:20.827Z,24.46
2023-03-23T02:30:20.839Z,24.49
2023-03-23T02:34:20.687Z,24.44
2023-03-23T02:38:20.725Z,24.47
2023-03-23T02:42:21.508Z,24.46
2023-03-23T02:46:20.601Z,24.44
2023-03-23T02:50:20.566Z,24.45
2023-03-23T02:54:20.549Z,24.50
2023-03-23T02:58:20.524Z,24.44
2023-03-23T03:02:20.451Z,24.43
2023-03-23T03:06:20.447Z,24.51
2023-03-23T03:10:20.401Z,24.47
2023-03-23T03:14:20.382Z,24.51
2023-03-23T03:18:20.337Z,24.46
2023-03-23T03:22:20.291Z,24.47
2023-03-23T03:26:20.280Z,24.49
2023-03-23T03:30:20.222Z,24.55
2023-03-23T03:34:20.195Z,24.49
2023-03-23T03:38:20.116Z,24.52
2023-03-23T03:42:20.152Z,24.51
2023-03-23T03:46:20.111Z,24.49
2023-03-23T03:50:20.060Z,24.51
2023-03-23T03:54:20.046Z,24.54
2023-03-23T03:58:20.062Z,24.54
2023-03-23T04:02:19.919Z,24.58
2023-03-23T04:06:20.152Z,24.55
2023-03-23T04:10:32.687Z,24.55
2023-03-23T04:14:20.834Z,24.52
2023-03-23T04:18:19.825Z,24.54
2023-03-23T04:22:19.769Z,24.54
2023-03-23T04:26:19.732Z,24.52
2023-03-23T04:30:19.688Z,24.57
2023-03-23T04:34:19.612Z,24.54
2023-03-23T04:38:19.595Z,24.57
2023-03-23T04:42:19.582Z,24.59
2023-03-23T04:46:19.615Z,24.61
2023-03-23T04:50:19.554Z,24.57
2023-03-23T04:54:19.606Z,24.59
2023-03-23T04:58:19.609Z,24.59
2023-03-23T05:02:19.614Z,24.61
2023-03-23T05:06:19.659Z,24.31
2023-03-23T05:10:24.676Z,24.01
2023-03-23T05:14:20.631Z,23.84
2023-03-23T05:18:19.567Z,23.73
2023-03-23T05:22:19.485Z,23.62
2023-03-23T05:26:19.466Z,23.52
2023-03-23T05:30:19.476Z,23.41
2023-03-23T05:34:19.566Z,23.46
2023-03-23T05:38:19.681Z,23.57
2023-03-23T05:42:19.700Z,23.58
2023-03-23T05:46:20.570Z,23.62
2023-03-23T05:50:19.739Z,23.66
2023-03-23T05:54:19.736Z,23.67
2023-03-23T05:58:19.774Z,23.74
2023-03-23T06:02:19.725Z,23.75
2023-03-23T06:06:19.713Z,23.74
2023-03-23T06:10:19.746Z,23.77
2023-03-23T06:14:19.709Z,23.80
2023-03-23T06:18:19.694Z,23.87
2023-03-23T06:22:19.665Z,23.88
2023-03-23T06:26:19.623Z,23.88
2023-03-23T06:30:19.685Z,23.92
2023-03-23T06:34:20.231Z,24.02
2023-03-23T06:38:20.597Z,24.07
2023-03-23T06:42:19.665Z,24.54
2023-03-23T06:46:19.654Z,25.35
2023-03-23T06:50:19.658Z,25.96
2023-03-23T06:54:19.644Z,26.07
2023-03-23T06:58:19.662Z,25.90
2023-03-23T07:02:19.649Z,26.03
2023-03-23T07:06:19.678Z,25.94
2023-03-23T07:10:19.910Z,25.74
2023-03-23T07:14:19.991Z,25.65
2023-03-23T07:18:20.145Z,25.70
2023-03-23T07:22:20.267Z,25.62
2023-03-23T07:26:20.540Z,25.58
2023-03-23T07:30:20.522Z,25.60
2023-03-23T07:34:20.719Z,25.61
2023-03-23T07:38:20.617Z,25.51
2023-03-23T07:42:20.596Z,25.51
2023-03-23T07:46:20.859Z,25.43
2023-03-23T07:50:20.623Z,25.23
2023-03-23T07:54:20.465Z,25.25
2023-03-23T07:58:20.588Z,25.24
2023-03-23T08:02:20.413Z,25.44
2023-03-23T08:06:20.463Z,25.40
2023-03-23T08:10:20.356Z,25.20
2023-03-23T08:14:21.935Z,25.24
2023-03-23T08:18:20.263Z,25.36
2023-03-23T08:22:20.236Z,25.28
2023-03-23T08:26:20.149Z,25.37
2023-03-23T08:30:20.700Z,25.45
2023-03-23T08:34:20.107Z,24.28
2023-03-23T08:38:20.316Z,24.42
2023-03-23T08:42:20.665Z,24.50
2023-03-23T08:46:20.702Z,24.55
2023-03-23T08:50:20.887Z,24.59
2023-03-23T08:54:21.028Z,24.58
2023-03-23T08:58:21.218Z,24.61
2023-03-23T09:02:22.170Z,24.55
2023-03-23T09:06:21.353Z,24.54
2023-03-23T09:10:21.449Z,24.62
2023-03-23T09:14:21.503Z,24.51
2023-03-23T09:18:21.641Z,24.53
2023-03-23T09:22:21.834Z,24.45
2023-03-23T09:26:21.669Z,24.72
2023-03-23T09:30:21.626Z,24.50
2023-03-23T09:34:21.642Z,24.40
2023-03-23T09:38:21.571Z,24.28
2023-03-23T09:42:21.607Z,24.08
2023-03-23T09:46:21.468Z,24.79
2023-03-23T09:50:21.447Z,25.44
2023-03-23T09:54:21.386Z,25.49
2023-03-23T09:58:21.362Z,25.36
2023-03-23T10:02:21.328Z,25.47
2023-03-23T10:06:21.271Z,26.19
2023-03-23T10:10:21.355Z,25.99
2023-03-23T10:14:21.712Z,25.95
2023-03-23T10:18:21.258Z,25.86
2023-03-23T10:22:21.245Z,25.96
2023-03-23T10:26:21.253Z,25.88
2023-03-23T10:30:21.850Z,26.04
2023-03-23T10:34:21.232Z,26.49
2023-03-23T10:38:21.259Z,25.88
2023-03-23T10:42:21.031Z,24.94
2023-03-23T10:46:31.601Z,24.54
2023-03-23T10:50:21.963Z,24.37
2023-03-23T10:54:20.928Z,24.22
2023-03-23T10:58:20.990Z,24.09
2023-03-23T11:02:29.409Z,23.89
2023-03-23T11:06:22.120Z,23.79
2023-03-23T11:10:21.072Z,23.79
2023-03-23T11:14:20.989Z,24.18
2023-03-23T11:18:20.980Z,23.85
2023-03-23T11:22:20.941Z,23.88
2023-03-23T11:26:20.913Z,23.86
2023-03-23T11:30:20.892Z,23.08
2023-03-23T11:34:21.100Z,23.06
2023-03-23T11:38:21.161Z,23.33
2023-03-23T11:42:21.293Z,23.51
2023-03-23T11:46:21.463Z,23.70
2023-03-23T11:50:21.610Z,23.97
2023-03-23T11:54:21.733Z,23.97
2023-03-23T11:58:21.918Z,23.76
2023-03-23T12:02:22.056Z,23.79
2023-03-23T12:06:22.172Z,23.39
2023-03-23T12:10:30.692Z,23.55
2023-03-23T12:14:25.157Z,23.85
2023-03-23T12:18:22.760Z,23.85
2023-03-23T12:22:22.265Z,23.74
2023-03-23T12:26:22.216Z,23.55
2023-03-23T12:30:22.402Z,23.56
2023-03-23T12:34:22.410Z,23.96
2023-03-23T12:38:22.549Z,23.70
2023-03-23T12:42:22.656Z,23.61
2023-03-23T12:46:22.765Z,23.38
2023-03-23T12:50:22.969Z,23.23
2023-03-23T12:54:23.042Z,23.11
2023-03-23T12:58:23.155Z,23.11
2023-03-23T13:02:23.286Z,23.08
2023-03-23T13:06:23.305Z,22.94
2023-03-23T13:10:24.303Z,22.87
2023-03-23T13:14:23.289Z,22.89
2023-03-23T13:18:23.234Z,23.01
2023-03-23T13:22:23.150Z,23.01
2023-03-23T13:26:23.125Z,22.90
2023-03-23T13:30:23.166Z,22.95
2023-03-23T13:34:23.378Z,22.96
2023-03-23T13:38:23.616Z,22.94
2023-03-23T13:42:23.769Z,22.91
2023-03-23T13:46:23.880Z,22.98
2023-03-23T13:50:24.133Z,23.02
2023-03-23T13:54:24.199Z,23.10
2023-03-23T13:58:24.212Z,23.04
2023-03-23T14:02:24.250Z,23.05
2023-03-23T14:06:24.278Z,23.19
2023-03-23T14:10:24.346Z,23.21
2023-03-23T14:14:24.432Z,23.19
2023-03-23T14:18:24.466Z,23.43
2023-03-23T14:22:24.571Z,23.45
2023-03-23T14:26:24.645Z,23.50
2023-03-23T14:30:24.732Z,23.56
2023-03-23T14:34:24.805Z,23.57
2023-03-23T14:38:24.881Z,23.63
2023-03-23T14:42:24.937Z,23.44
2023-03-23T14:46:25.339Z,23.46
2023-03-23T14:50:25.101Z,23.50
2023-03-23T14:54:25.082Z,23.59
2023-03-23T14:58:25.118Z,23.44
2023-03-23T15:02:25.283Z,23.34
2023-03-23T15:06:25.092Z,23.40
2023-03-23T15:10:25.132Z,23.41
2023-03-23T15:14:25.148Z,23.47
2023-03-23T15:18:25.167Z,23.67
2023-03-23T15:22:25.233Z,23.68
2023-03-23T15:26:25.276Z,23.75
2023-03-23T15:30:25.264Z,23.65
2023-03-23T15:34:25.285Z,23.56
2023-03-23T15:38:25.364Z,23.55
2023-03-23T15:42:26.691Z,23.49
2023-03-23T15:46:25.470Z,23.49
2023-03-23T15:50:25.506Z,23.65
2023-03-23T15:54:25.617Z,23.79
2023-03-23T15:58:25.679Z,23.88
2023-03-23T16:02:25.825Z,23.91
2023-03-23T16:06:25.816Z,23.98
2023-03-23T16:10:25.632Z,23.92
2023-03-23T16:14:25.669Z,23.95
2023-03-23T16:18:25.671Z,23.93
2023-03-23T16:22:25.728Z,23.94
2023-03-23T16:26:25.753Z,23.98
2023-03-23T16:30:25.747Z,23.94
2023-03-23T16:34:25.806Z,23.92
2023-03-23T16:38:25.964Z,24.02
2023-03-23T16:42:26.028Z,24.04
2023-03-23T16:46:26.105Z,24.11
2023-03-23T16:50:26.246Z,24.08
2023-03-23T16:54:26.325Z,24.10
2023-03-23T16:58:26.537Z,24.13
2023-03-23T17:02:26.861Z,24.11
2023-03-23T17:06:26.808Z,24.15
2023-03-23T17:10:27.029Z,24.18
2023-03-23T17:14:27.087Z,24.16
2023-03-23T17:18:27.294Z,24.17
2023-03-23T17:22:27.462Z,24.24
2023-03-23T17:26:27.902Z,24.26
2023-03-23T17:30:27.887Z,24.23
2023-03-23T17:34:28.120Z,24.29
2023-03-23T17:38:28.078Z,24.35
2023-03-23T17:42:28.063Z,24.30
2023-03-23T17:46:28.000Z,24.28
2023-03-23T17:50:27.968Z,24.34
2023-03-23T17:54:27.927Z,24.35
2023-03-23T17:58:27.931Z,24.41
2023-03-23T18:02:27.932Z,24.37
2023-03-23T18:06:27.790Z,24.46
2023-03-23T18:10:27.797Z,24.44
2023-03-23T18:14:27.921Z,24.45
2023-03-23T18:18:27.695Z,24.49
2023-03-23T18:22:27.728Z,24.43
2023-03-23T18:26:27.717Z,24.57
2023-03-23T18:30:27.672Z,25.49
2023-03-23T18:34:27.625Z,25.07
2023-03-23T18:38:27.727Z,24.95
2023-03-23T18:42:27.778Z,24.83
2023-03-23T18:46:27.877Z,24.92
2023-03-23T18:50:28.024Z,24.89
2023-03-23T18:54:28.172Z,24.88
2023-03-23T18:58:28.388Z,24.80
2023-03-23T19:02:28.599Z,24.74
2023-03-23T19:06:28.725Z,24.81
2023-03-23T19:10:28.880Z,24.82
2023-03-23T19:14:29.001Z,24.77
2023-03-23T19:18:29.132Z,24.78
2023-03-23T19:22:29.217Z,24.82
2023-03-23T19:26:29.351Z,24.77
2023-03-23T19:30:29.480Z,24.83
2023-03-23T19:34:30.092Z,24.80
2023-03-23T19:38:29.702Z,24.83
2023-03-23T19:42:29.848Z,24.80
2023-03-23T19:46:30.971Z,24.85
2023-03-23T19:50:30.030Z,24.88
2023-03-23T19:54:30.132Z,24.83
2023-03-23T19:58:30.450Z,24.85
2023-03-23T20:02:30.555Z,24.85
2023-03-23T20:06:30.556Z,24.85
2023-03-23T20:10:30.707Z,24.89
2023-03-23T20:14:30.985Z,24.90
2023-03-23T20:18:31.533Z,24.95
2023-03-23T20:22:31.123Z,24.93
2023-03-23T20:26:31.369Z,24.87
2023-03-23T20:30:31.458Z,24.93
2023-03-23T20:34:31.764Z,24.98
2023-03-23T20:38:31.914Z,24.96
2023-03-23T20:42:31.998Z,24.96
2023-03-23T20:46:32.210Z,25.02
2023-03-23T20:50:32.345Z,25.03
2023-03-23T20:54:32.555Z,24.99
2023-03-23T20:58:32.785Z,25.00
2023-03-23T21:02:32.932Z,25.01
2023-03-23T21:06:33.122Z,24.97
2023-03-23T21:10:33.259Z,25.00
2023-03-23T21:14:33.488Z,25.03
2023-03-23T21:18:33.618Z,25.05
2023-03-23T21:22:33.859Z,25.05
2023-03-23T21:26:34.029Z,25.05
2023-03-23T21:30:34.221Z,25.08
2023-03-23T21:34:34.452Z,25.09
2023-03-23T21:38:34.730Z,25.08
2023-03-23T21:42:34.656Z,25.09
2023-03-23T21:46:34.572Z,25.08
2023-03-23T21:50:34.570Z,25.12
2023-03-23T21:54:34.483Z,25.11
2023-03-23T21:58:34.445Z,25.11
2023-03-23T22:02:34.425Z,25.09
2023-03-23T22:06:34.439Z,25.10
2023-03-23T22:10:34.343Z,25.11
2023-03-23T22:14:34.319Z,25.08
2023-03-23T22:18:34.256Z,25.11
2023-03-23T22:22:34.242Z,25.17
2023-03-23T22:26:34.218Z,25.14
2023-03-23T22:30:34.199Z,25.15
2023-03-23T22:34:34.135Z,25.09
2023-03-23T22:38:34.108Z,25.15
2023-03-23T22:42:34.092Z,25.14
2023-03-23T22:46:34.058Z,25.15
2023-03-23T22:50:33.982Z,25.16
2023-03-23T22:54:33.970Z,25.13
2023-03-23T22:58:34.001Z,25.12
2023-03-23T23:02:33.973Z,25.17
2023-03-23T23:06:33.940Z,25.13
2023-03-23T23:10:33.922Z,25.13
2023-03-23T23:14:33.842Z,25.13
2023-03-23T23:18:33.839Z,25.14
2023-03-23T23:22:33.764Z,25.11
2023-03-23T23:26:33.707Z,25.12
2023-03-23T23:30:33.689Z,25.13
2023-03-23T23:34:33.772Z,25.16
2023-03-23T23:38:33.615Z,25.12
2023-03-23T23:42:33.590Z,25.14
2023-03-23T23:46:33.751Z,25.14
2023-03-23T23:50:33.830Z,25.12
2023-03-23T23:54:33.925Z,25.16
2023-03-23T23:58:34.038Z,25.16
